This is the latest recevied weather packets stored in our database for station/object VE4JMP. If no packets are shown the sender has not sent any weather packets the latest 10 day(s).
| Time | Temp. | Humidity | Pressure | Rain* | Wind** | Luminosity | Snow |
|---|---|---|---|---|---|---|---|
| 1777992021 | 0° C | 69% | 1013.2 hPa | 0 mm | - | - | - |
| 1777987219 | -1.11° C | 69% | 1012.4 hPa | 0 mm | - | - | - |
| 1777986026 | -1.67° C | 70% | 1012 hPa | 0 mm | - | - | - |
| 1777984816 | -1.67° C | 73% | 1011.8 hPa | 0 mm | - | - | - |
| 1777983624 | -2.22° C | 74% | 1011.7 hPa | 0 mm | - | - | - |
| 1777983049 | -2.22° C | 73% | 1011.7 hPa | 0 mm | - | - | - |
| 1777981839 | -2.22° C | 73% | 1011.5 hPa | 0 mm | - | - | - |
| 1777975824 | -2.22° C | 74% | 1010.8 hPa | 0 mm | - | - | - |
| 1777974018 | -2.22° C | 73% | 1010.7 hPa | 0 mm | - | - | - |
| 1777971616 | -2.78° C | 74% | 1010.4 hPa | 0 mm | - | - | - |
| 1777966217 | -2.22° C | 74% | 1010.2 hPa | 0 mm | - | - | - |
| 1777963815 | -2.22° C | 77% | 1010.2 hPa | 0 mm | - | - | - |
| 1777962623 | -2.22° C | 77% | 1010 hPa | 0 mm | - | - | - |
| 1777957224 | -1.67° C | 76% | 1009.5 hPa | 0 mm | - | - | - |
| 1777950633 | -3.89° C | 83% | 1009.1 hPa | 0 mm | - | - | - |
| 1777949423 | -3.89° C | 78% | 1009 hPa | 0 mm | - | - | - |
| 1777942832 | 0.56° C | 71% | 1008.3 hPa | 0 mm | - | - | - |
| 1777942218 | 0.56° C | 71% | 1008.2 hPa | 0 mm | - | - | - |
| 1777941026 | 1.11° C | 70% | 1007.9 hPa | 0 mm | - | - | - |
| 1777940430 | 1.11° C | 69% | 1007.9 hPa | 0 mm | - | - | - |
| 1777933821 | 2.22° C | 66% | 1006.9 hPa | 0 mm | - | - | - |
| 1777930823 | 3.33° C | 64% | 1006.3 hPa | 0 mm | - | - | - |
| 1777918826 | 3.33° C | 67% | 1003.7 hPa | 0 mm | - | - | - |
| 1777914029 | 3.89° C | 67% | 1002.3 hPa | 0 mm | - | - | - |
| 1777912819 | 3.33° C | 76% | 1002 hPa | 0 mm | - | - | - |
* Rain latest hour (hover to see other rain measurements)
** Current wind speed in m/s (hover to see current wind gust speed)